Time;durP1;ratioP1;P1;durP2;ratioP2;P2;SDS_P1;SDS_P2;PMS_P1;PMS_P2;Temp;Humidity;BMP_temperature;BMP_pressure;BME280_temperature;BME280_humidity;BME280_pressure;Samples;Min_cycle;Max_cycle;Signal;HPM_P1;HPM_P2
2022/09/11 00:00:09;;;;;;;7.00;6.30;;;;;;;13.70;100.00;100528.91;6276682;28;20251;-88
2022/09/11 00:03:13;;;;;;;6.10;5.50;;;;;;;13.72;100.00;100527.78;6283302;28;20056;-88
2022/09/11 00:06:21;;;;;;;7.88;6.30;;;;;;;13.70;100.00;100534.09;6274995;28;20097;-89
2022/09/11 00:09:30;;;;;;;8.77;6.35;;;;;;;13.68;100.00;100538.63;6279610;28;20040;-88
2022/09/11 00:12:32;;;;;;;9.07;6.35;;;;;;;13.63;100.00;100535.63;6265452;28;20418;-89
2022/09/11 00:15:48;;;;;;;8.85;6.28;;;;;;;13.57;100.00;100526.63;6279725;28;20043;-89
2022/09/11 00:18:50;;;;;;;8.05;7.00;;;;;;;13.53;100.00;100528.66;6264109;28;20040;-88
2022/09/11 00:21:56;;;;;;;8.38;6.75;;;;;;;13.50;100.00;100531.53;6282572;28;20091;-89
2022/09/11 00:24:58;;;;;;;9.20;6.90;;;;;;;13.46;100.00;100537.97;6278478;28;20052;-89
2022/09/11 00:28:01;;;;;;;9.38;7.78;;;;;;;13.48;100.00;100535.25;6278162;28;20040;-89
2022/09/11 00:31:11;;;;;;;10.65;8.32;;;;;;;13.53;100.00;100533.84;6278659;28;20339;-89
2022/09/11 00:34:13;;;;;;;10.07;7.93;;;;;;;13.50;100.00;100533.34;6276389;28;20143;-89
2022/09/11 00:37:14;;;;;;;10.05;7.72;;;;;;;13.51;100.00;100534.97;6266020;28;20190;-89
2022/09/11 00:40:18;;;;;;;10.13;7.55;;;;;;;13.52;100.00;100537.44;6275134;28;20048;-89
2022/09/11 00:43:20;;;;;;;10.52;8.45;;;;;;;13.46;100.00;100532.78;6272617;28;20033;-88
2022/09/11 00:46:33;;;;;;;11.75;8.68;;;;;;;13.45;100.00;100541.53;6277924;28;20064;-89
2022/09/11 00:49:39;;;;;;;13.07;8.52;;;;;;;13.42;100.00;100547.03;6277948;28;20036;-89
2022/09/11 00:52:53;;;;;;;12.93;8.63;;;;;;;13.35;100.00;100556.34;6280652;28;20036;-89
2022/09/11 00:55:59;;;;;;;10.30;8.27;;;;;;;13.33;100.00;100564.25;6292550;28;20048;-89
2022/09/11 00:59:03;;;;;;;12.43;8.40;;;;;;;13.33;100.00;100558.25;6278976;28;20700;-90
2022/09/11 01:02:07;;;;;;;11.75;8.50;;;;;;;13.31;100.00;100565.38;6280893;28;20499;-89
2022/09/11 01:05:10;;;;;;;11.07;8.50;;;;;;;13.29;100.00;100565.53;6259556;28;20075;-89
2022/09/11 01:08:12;;;;;;;11.68;9.10;;;;;;;13.27;100.00;100570.03;6256919;28;20098;-89
2022/09/11 01:11:52;;;;;;;14.63;9.98;;;;;;;13.27;100.00;100575.22;6269211;28;20395;-89
2022/09/11 01:15:07;;;;;;;12.65;9.57;;;;;;;13.38;100.00;100576.03;6269147;28;20140;-89
2022/09/11 01:18:25;;;;;;;13.90;10.23;;;;;;;13.53;100.00;100566.84;6269378;28;20049;-90
2022/09/11 01:21:40;;;;;;;14.30;10.07;;;;;;;13.62;100.00;100567.81;6271149;28;20507;-90
2022/09/11 01:25:14;;;;;;;14.43;9.80;;;;;;;13.68;100.00;100565.44;6281499;28;20534;-90
2022/09/11 01:28:24;;;;;;;16.15;11.63;;;;;;;13.70;100.00;100570.53;6269908;28;20045;-89
2022/09/11 01:31:35;;;;;;;16.83;12.98;;;;;;;13.72;100.00;100569.41;6273467;28;20049;-89
2022/09/11 01:35:08;;;;;;;19.48;12.48;;;;;;;13.83;100.00;100578.03;6257113;28;20048;-89
2022/09/11 01:38:48;;;;;;;19.40;13.30;;;;;;;13.88;100.00;100573.22;6158833;28;20497;-90
2022/09/11 01:42:07;;;;;;;20.20;13.07;;;;;;;13.91;100.00;100572.91;6167777;28;20673;-89
2022/09/11 01:45:14;;;;;;;20.05;13.70;;;;;;;13.93;100.00;100582.22;6165349;28;20034;-89
2022/09/11 01:48:21;;;;;;;22.02;14.02;;;;;;;13.97;100.00;100578.38;6161854;28;20049;-89
2022/09/11 01:51:29;;;;;;;22.02;14.63;;;;;;;13.93;100.00;100576.22;6174372;28;20058;-89
2022/09/11 01:54:40;;;;;;;28.70;16.13;;;;;;;13.97;100.00;100578.38;6175706;28;20065;-89
2022/09/11 01:57:46;;;;;;;22.33;14.68;;;;;;;14.08;100.00;100582.59;6177022;28;20496;-89
2022/09/11 02:00:53;;;;;;;23.92;15.20;;;;;;;14.10;100.00;100579.84;6178550;28;20480;-89
2022/09/11 02:04:13;;;;;;;23.70;14.98;;;;;;;14.04;100.00;100583.03;6163473;28;20121;-89
2022/09/11 02:07:20;;;;;;;24.77;15.40;;;;;;;14.06;100.00;100586.28;6178096;28;20141;-89
2022/09/11 02:10:32;;;;;;;28.02;16.80;;;;;;;14.10;100.00;100582.47;6143523;28;20345;-89
2022/09/11 02:13:52;;;;;;;27.45;16.52;;;;;;;14.09;100.00;100586.03;6172693;28;20036;-89
2022/09/11 02:17:39;;;;;;;28.77;17.33;;;;;;;14.16;100.00;100585.31;6297026;28;20063;-89
2022/09/11 02:20:46;;;;;;;29.55;18.30;;;;;;;14.22;100.00;100587.34;6213455;28;20191;-89
2022/09/11 02:23:48;;;;;;;30.13;18.50;;;;;;;14.25;100.00;100588.84;6233286;28;20107;-89
2022/09/11 02:27:02;;;;;;;32.88;17.98;;;;;;;14.21;100.00;100598.72;6223815;28;20053;-89
2022/09/11 02:30:06;;;;;;;34.90;18.70;;;;;;;14.27;100.00;100605.13;6227018;28;20067;-89
2022/09/11 02:33:31;;;;;;;47.10;19.90;;;;;;;14.31;100.00;100606.50;6210267;28;20419;-89
2022/09/11 02:36:53;;;;;;;44.00;18.02;;;;;;;14.29;100.00;100603.22;6198098;28;20529;-89
2022/09/11 02:40:14;;;;;;;37.75;17.60;;;;;;;14.24;100.00;100609.81;6209298;28;20041;-89
2022/09/11 02:43:31;;;;;;;38.30;19.75;;;;;;;14.21;100.00;100611.75;6210836;28;20521;-89
2022/09/11 02:46:37;;;;;;;43.45;18.50;;;;;;;14.23;100.00;100616.78;6216093;28;20053;-89
2022/09/11 02:50:07;;;;;;;56.22;19.35;;;;;;;14.24;100.00;100617.63;6222137;28;20803;-89
2022/09/11 02:53:19;;;;;;;43.45;19.83;;;;;;;14.18;100.00;100619.00;6209752;28;20432;-89
2022/09/11 02:56:37;;;;;;;42.25;20.20;;;;;;;14.24;100.00;100625.44;6240999;28;20132;-89
2022/09/11 02:59:44;;;;;;;46.08;20.33;;;;;;;14.20;100.00;100625.72;6286355;28;20052;-89
2022/09/11 03:02:46;;;;;;;47.20;20.10;;;;;;;14.24;100.00;100628.06;6277288;28;20087;-89
2022/09/11 03:05:48;;;;;;;54.80;20.42;;;;;;;14.25;100.00;100634.88;6283152;28;20041;-89
2022/09/11 03:08:51;;;;;;;55.47;21.63;;;;;;;14.25;100.00;100634.88;6277508;28;20434;-90
2022/09/11 03:11:54;;;;;;;57.03;20.20;;;;;;;14.33;100.00;100638.41;6267201;28;20494;-90
2022/09/11 03:14:56;;;;;;;57.22;19.73;;;;;;;14.31;100.00;100642.97;6283897;28;20050;-90
2022/09/11 03:17:58;;;;;;;41.78;20.00;;;;;;;14.22;100.00;100636.81;6285417;28;20048;-90
2022/09/11 03:21:00;;;;;;;42.42;19.50;;;;;;;14.21;100.00;100639.56;6282979;28;20422;-90
2022/09/11 03:24:02;;;;;;;54.22;19.88;;;;;;;14.21;100.00;100640.38;6282783;28;20045;-90
2022/09/11 03:27:06;;;;;;;64.20;21.55;;;;;;;14.21;100.00;100640.38;6262308;28;20491;-90
2022/09/11 03:30:09;;;;;;;63.72;20.65;;;;;;;14.21;100.00;100643.00;6277080;28;20663;-90
2022/09/11 03:33:12;;;;;;;102.43;27.15;;;;;;;14.15;100.00;100643.53;6272185;28;20040;-89
2022/09/11 03:36:13;;;;;;;60.70;20.02;;;;;;;14.13;100.00;100639.44;6278419;28;20045;-90
2022/09/11 03:39:15;;;;;;;62.10;20.20;;;;;;;14.16;100.00;100649.56;6270156;28;20049;-89
2022/09/11 03:42:17;;;;;;;76.50;21.13;;;;;;;14.12;100.00;100648.22;6269467;28;20203;-89
2022/09/11 03:45:20;;;;;;;55.30;20.98;;;;;;;14.11;100.00;100656.97;6275885;28;20040;-89
2022/09/11 03:48:24;;;;;;;65.45;19.73;;;;;;;14.14;100.00;100660.13;6278641;28;20088;-89
2022/09/11 03:51:25;;;;;;;65.72;21.42;;;;;;;14.12;100.00;100663.84;6284889;28;20075;-89
2022/09/11 03:54:27;;;;;;;53.30;20.65;;;;;;;14.14;100.00;100661.91;6283427;28;20059;-89
2022/09/11 03:57:32;;;;;;;64.50;21.90;;;;;;;14.19;100.00;100659.72;6284577;28;20514;-89
2022/09/11 04:00:35;;;;;;;55.67;20.67;;;;;;;14.14;100.00;100659.31;6285884;28;20052;-90
2022/09/11 04:03:38;;;;;;;34.85;18.50;;;;;;;14.09;100.00;100664.94;6259066;28;20099;-90
2022/09/11 04:06:41;;;;;;;33.92;16.38;;;;;;;14.11;100.00;100667.38;6300121;28;20379;-90
2022/09/11 04:09:43;;;;;;;38.97;17.45;;;;;;;14.17;100.00;100656.44;6281075;28;20100;-89
2022/09/11 04:12:47;;;;;;;37.72;16.98;;;;;;;14.09;100.00;100656.31;6269915;28;20045;-89
2022/09/11 04:15:51;;;;;;;34.95;16.65;;;;;;;14.05;100.00;100662.75;6275131;28;20044;-90
2022/09/11 04:18:54;;;;;;;34.17;16.92;;;;;;;14.06;100.00;100667.84;6284416;28;20032;-90
2022/09/11 04:21:57;;;;;;;35.28;15.68;;;;;;;14.06;100.00;100669.59;6254576;28;20514;-89
2022/09/11 04:25:00;;;;;;;29.35;15.02;;;;;;;14.03;100.00;100670.69;6284413;28;20143;-89
2022/09/11 04:28:03;;;;;;;34.83;14.82;;;;;;;14.06;100.00;100680.00;6277904;28;20429;-90
2022/09/11 04:31:05;;;;;;;32.28;15.90;;;;;;;14.00;100.00;100677.00;6277449;28;20154;-90
2022/09/11 04:34:08;;;;;;;32.10;16.02;;;;;;;14.08;100.00;100683.28;6277000;28;20131;-89
2022/09/11 04:37:11;;;;;;;30.05;16.05;;;;;;;13.99;100.00;100683.19;6281642;28;20509;-90
2022/09/11 04:40:14;;;;;;;30.73;16.17;;;;;;;13.98;100.00;100685.91;6300473;28;20037;-90
2022/09/11 04:43:17;;;;;;;27.95;14.00;;;;;;;13.98;100.00;100685.91;6267065;28;20041;-90
2022/09/11 04:46:19;;;;;;;23.00;12.77;;;;;;;13.98;100.00;100689.31;6278914;28;20131;-89
2022/09/11 04:49:22;;;;;;;25.90;13.32;;;;;;;13.88;100.00;100696.31;6272926;28;20524;-90
2022/09/11 04:52:24;;;;;;;28.25;14.27;;;;;;;13.86;100.00;100695.63;6268130;28;20079;-90
2022/09/11 04:55:26;;;;;;;25.58;13.20;;;;;;;13.81;100.00;100690.03;6295252;28;20079;-90
2022/09/11 04:58:28;;;;;;;24.02;12.27;;;;;;;13.80;100.00;100693.59;6277360;28;20446;-90
2022/09/11 05:01:31;;;;;;;27.23;13.98;;;;;;;13.77;100.00;100688.69;6296261;28;20411;-90
2022/09/11 05:04:33;;;;;;;30.00;15.10;;;;;;;13.81;100.00;100697.03;6274473;28;20434;-91
2022/09/11 05:07:35;;;;;;;26.60;15.23;;;;;;;13.74;100.00;100696.78;6260298;28;20052;-91
2022/09/11 05:10:38;;;;;;;29.75;15.48;;;;;;;13.78;100.00;100704.13;6268978;28;20186;-91
2022/09/11 05:13:41;;;;;;;33.80;17.15;;;;;;;13.81;100.00;100705.63;6276122;28;20086;-90
2022/09/11 05:16:44;;;;;;;29.73;15.77;;;;;;;13.77;100.00;100706.91;6270699;28;20384;-90
2022/09/11 05:19:48;;;;;;;29.02;15.05;;;;;;;13.73;100.00;100706.31;6259083;28;20426;-90
2022/09/11 05:22:52;;;;;;;28.08;14.55;;;;;;;13.74;100.00;100709.78;6279533;28;20039;-89
2022/09/11 05:26:03;;;;;;;31.17;16.20;;;;;;;13.77;100.00;100725.91;6271447;28;20071;-90
2022/09/11 05:29:10;;;;;;;33.53;17.48;;;;;;;13.76;100.00;100726.03;6272394;28;20045;-89
2022/09/11 05:32:19;;;;;;;27.67;14.55;;;;;;;13.78;100.00;100731.94;6265968;28;20094;-90
2022/09/11 05:35:26;;;;;;;30.10;15.43;;;;;;;13.81;100.00;100736.06;6271706;28;20036;-90
2022/09/11 05:38:35;;;;;;;32.92;15.85;;;;;;;13.72;100.00;100738.53;6270185;28;20507;-90
2022/09/11 05:41:37;;;;;;;35.65;15.93;;;;;;;13.76;100.00;100741.66;6289199;28;20068;-89
2022/09/11 05:44:39;;;;;;;37.03;16.80;;;;;;;13.71;100.00;100743.84;6276882;28;20438;-90
2022/09/11 05:47:41;;;;;;;33.53;16.80;;;;;;;13.68;100.00;100744.13;6270967;28;20045;-90
2022/09/11 05:51:00;;;;;;;33.80;16.75;;;;;;;13.74;100.00;100752.22;6278154;28;20044;-90
2022/09/11 05:54:03;;;;;;;40.78;17.88;;;;;;;13.76;100.00;100763.31;6295926;28;20048;-90
2022/09/11 05:57:06;;;;;;;44.05;19.10;;;;;;;13.75;100.00;100768.66;6273201;28;20045;-89
2022/09/11 06:00:13;;;;;;;43.83;20.08;;;;;;;13.77;100.00;100769.34;6262374;28;20058;-90
2022/09/11 06:03:25;;;;;;;43.65;20.13;;;;;;;13.74;100.00;100775.63;6272715;28;20060;-90
2022/09/11 06:06:29;;;;;;;41.28;19.35;;;;;;;13.72;100.00;100784.53;6293723;28;20045;-90
2022/09/11 06:09:31;;;;;;;37.20;18.48;;;;;;;13.72;100.00;100787.94;6270651;28;20040;-89
2022/09/11 06:12:34;;;;;;;42.35;19.83;;;;;;;13.71;100.00;100790.69;6272250;28;20035;-90
2022/09/11 06:15:43;;;;;;;40.55;19.30;;;;;;;13.75;100.00;100799.88;6271464;28;20175;-90
2022/09/11 06:18:50;;;;;;;45.80;20.75;;;;;;;13.76;100.00;100793.69;6271123;28;20037;-90
2022/09/11 06:21:55;;;;;;;45.47;20.65;;;;;;;13.76;100.00;100801.50;6273210;28;20403;-89
2022/09/11 06:25:02;;;;;;;42.35;20.02;;;;;;;13.82;100.00;100793.16;6277579;28;20052;-89
2022/09/11 06:28:04;;;;;;;37.63;19.52;;;;;;;13.90;100.00;100802.91;6275451;28;20045;-90
2022/09/11 06:31:10;;;;;;;38.58;19.85;;;;;;;13.93;100.00;100803.44;6276292;28;20044;-90
2022/09/11 06:34:12;;;;;;;36.65;19.77;;;;;;;14.04;100.00;100806.88;6270842;28;20498;-89
2022/09/11 06:37:15;;;;;;;36.80;18.42;;;;;;;14.09;100.00;100812.50;6274088;28;20051;-89
2022/09/11 06:40:17;;;;;;;35.33;19.65;;;;;;;14.14;100.00;100821.53;6266400;28;20040;-90
2022/09/11 06:43:19;;;;;;;40.00;20.13;;;;;;;14.21;100.00;100824.44;6265646;28;20116;-89
2022/09/11 06:46:23;;;;;;;39.15;20.23;;;;;;;14.28;100.00;100822.06;6273708;28;20123;-89
2022/09/11 06:49:29;;;;;;;33.17;19.02;;;;;;;14.28;100.00;100822.88;6277404;28;20049;-89
2022/09/11 06:52:54;;;;;;;34.88;20.17;;;;;;;14.35;100.00;100826.59;6181867;28;20054;-90
2022/09/11 06:56:00;;;;;;;32.33;18.10;;;;;;;14.42;100.00;100825.06;6155820;28;20082;-89
2022/09/11 06:59:04;;;;;;;32.08;18.65;;;;;;;14.43;100.00;100831.94;6202721;28;20073;-89
2022/09/11 07:02:08;;;;;;;33.60;18.13;;;;;;;14.38;100.00;100825.50;6194394;28;20053;-89
2022/09/11 07:05:10;;;;;;;35.92;19.35;;;;;;;14.44;100.00;100832.75;6190507;28;20521;-89
2022/09/11 07:08:12;;;;;;;35.33;18.63;;;;;;;14.48;100.00;100835.91;6185000;28;20050;-89
2022/09/11 07:11:18;;;;;;;35.65;18.88;;;;;;;14.52;100.00;100829.47;6172771;28;20094;-89
2022/09/11 07:14:22;;;;;;;37.17;19.20;;;;;;;14.59;100.00;100833.19;6175190;28;20047;-89
2022/09/11 07:17:28;;;;;;;33.92;18.55;;;;;;;14.63;100.00;100840.59;6188222;28;20658;-89
2022/09/11 07:20:30;;;;;;;34.40;18.13;;;;;;;14.67;100.00;100835.91;6189839;28;20046;-89
2022/09/11 07:23:40;;;;;;;34.03;18.63;;;;;;;14.77;100.00;100838.50;6167320;28;20046;-89
2022/09/11 07:26:43;;;;;;;33.30;18.52;;;;;;;14.88;100.00;100842.72;6191537;28;20054;-89
2022/09/11 07:29:50;;;;;;;33.13;18.75;;;;;;;14.93;100.00;100843.97;6234461;28;20091;-89
2022/09/11 07:32:52;;;;;;;33.65;18.77;;;;;;;14.97;100.00;100840.09;6271517;28;20045;-89
2022/09/11 07:35:55;;;;;;;37.55;20.15;;;;;;;15.08;100.00;100837.31;6276166;28;20414;-89
2022/09/11 07:38:58;;;;;;;34.53;18.67;;;;;;;15.24;100.00;100828.88;6260625;28;20048;-89
2022/09/11 07:42:08;;;;;;;33.38;19.02;;;;;;;15.38;100.00;100842.38;6269533;28;20088;-89
2022/09/11 07:45:11;;;;;;;32.58;18.98;;;;;;;15.40;100.00;100840.47;6285934;28;20512;-89
2022/09/11 07:48:14;;;;;;;37.85;20.05;;;;;;;15.44;100.00;100842.63;6277220;28;20048;-89
2022/09/11 07:51:17;;;;;;;36.35;20.58;;;;;;;15.61;100.00;100848.88;6264678;28;20037;-89
2022/09/11 07:54:21;;;;;;;40.45;20.38;;;;;;;15.65;100.00;100850.22;6283695;28;20182;-89
2022/09/11 07:57:23;;;;;;;33.45;19.58;;;;;;;15.77;100.00;100857.88;6258267;28;20041;-89
2022/09/11 08:00:26;;;;;;;37.45;20.08;;;;;;;15.80;100.00;100862.78;6275200;28;20044;-89
2022/09/11 08:03:37;;;;;;;37.85;20.27;;;;;;;15.90;100.00;100867.00;6277196;28;20071;-89
2022/09/11 08:06:39;;;;;;;36.97;20.95;;;;;;;16.06;100.00;100861.13;6271246;28;20784;-89
2022/09/11 08:09:45;;;;;;;33.92;19.88;;;;;;;16.19;100.00;100867.75;6276606;28;20056;-89
2022/09/11 08:12:47;;;;;;;35.83;19.55;;;;;;;16.29;100.00;100873.72;6279699;28;20047;-89
2022/09/11 08:15:55;;;;;;;39.67;21.77;;;;;;;16.38;100.00;100869.41;6272704;28;20063;-89
2022/09/11 08:18:58;;;;;;;38.00;20.70;;;;;;;16.50;100.00;100874.25;6281033;28;20056;-89
2022/09/11 08:21:59;;;;;;;39.03;20.88;;;;;;;16.61;100.00;100877.59;6282629;28;20540;-89
2022/09/11 08:25:06;;;;;;;34.22;19.75;;;;;;;16.73;100.00;100881.59;6299226;28;20346;-89
2022/09/11 08:28:09;;;;;;;35.55;19.75;;;;;;;16.72;100.00;100886.00;6273476;28;20039;-89
2022/09/11 08:31:12;;;;;;;33.63;17.58;;;;;;;16.79;100.00;100883.63;6279199;28;20035;-89
2022/09/11 08:34:14;;;;;;;28.70;17.42;;;;;;;16.84;100.00;100889.22;6256026;28;20541;-89
2022/09/11 08:37:17;;;;;;;29.27;17.23;;;;;;;16.90;100.00;100886.00;6270275;28;20052;-89
2022/09/11 08:40:20;;;;;;;29.95;16.42;;;;;;;16.98;100.00;100890.47;6250306;28;20511;-89
2022/09/11 08:43:34;;;;;;;30.33;17.33;;;;;;;17.06;100.00;100894.91;6271667;28;20055;-89
2022/09/11 08:46:39;;;;;;;31.45;17.77;;;;;;;17.00;100.00;100896.34;6277973;28;20105;-89
2022/09/11 08:49:45;;;;;;;30.60;18.23;;;;;;;16.89;100.00;100894.81;6277017;28;20494;-89
2022/09/11 08:52:48;;;;;;;32.58;17.33;;;;;;;16.99;100.00;100894.69;6271866;28;20041;-89
2022/09/11 08:56:02;;;;;;;27.98;16.98;;;;;;;17.30;100.00;100899.47;6275789;28;20498;-89
2022/09/11 08:59:26;;;;;;;27.63;16.90;;;;;;;17.58;100.00;100911.38;6278761;28;20048;-89
2022/09/11 09:03:07;;;;;;;25.70;15.88;;;;;;;17.61;100.00;100915.47;6259303;28;20045;-89
2022/09/11 09:06:47;;;;;;;26.60;15.20;;;;;;;17.58;100.00;100921.03;6251102;28;20049;-89
2022/09/11 09:10:14;;;;;;;27.58;15.40;;;;;;;17.48;100.00;100918.53;6283564;28;20040;-89
2022/09/11 09:13:53;;;;;;;23.50;15.18;;;;;;;17.44;100.00;100919.84;6267455;28;20049;-89
2022/09/11 09:17:26;;;;;;;22.65;14.13;;;;;;;17.37;100.00;100918.81;6272321;28;20410;-89
2022/09/11 09:20:32;;;;;;;21.35;14.07;;;;;;;17.58;100.00;100921.03;6284317;28;20091;-88
2022/09/11 09:23:42;;;;;;;18.33;11.38;;;;;;;17.80;100.00;100917.06;6276287;28;20114;-89
2022/09/11 09:26:49;;;;;;;19.45;11.15;;;;;;;18.15;100.00;100921.22;6282941;28;20221;-89
2022/09/11 09:30:00;;;;;;;18.80;11.70;;;;;;;18.49;100.00;100918.50;6265324;28;20085;-89
2022/09/11 09:33:24;;;;;;;17.17;11.43;;;;;;;18.56;100.00;100920.44;6262575;28;20134;-88
2022/09/11 09:37:03;;;;;;;18.00;11.05;;;;;;;18.65;100.00;100924.72;6280031;28;20055;-88
2022/09/11 09:40:09;;;;;;;19.42;11.00;;;;;;;18.78;100.00;100926.88;6214029;28;21190;-88
2022/09/11 09:43:49;;;;;;;17.30;10.70;;;;;;;18.79;100.00;100934.59;6225216;28;20054;-88
2022/09/11 09:46:53;;;;;;;16.10;10.20;;;;;;;18.66;100.00;100929.81;6175012;28;20267;-88
2022/09/11 09:49:58;;;;;;;17.15;10.35;;;;;;;18.61;100.00;100929.47;6168877;28;20096;-88
2022/09/11 09:53:26;;;;;;;15.50;10.93;;;;;;;18.73;100.00;100927.31;6176647;28;20082;-89
2022/09/11 09:56:30;;;;;;;16.75;10.35;;;;;;;18.97;100.00;100938.84;6180355;28;20054;-88
2022/09/11 09:59:39;;;;;;;16.35;10.82;;;;;;;19.17;100.00;100939.28;6175534;28;20491;-88
2022/09/11 10:02:55;;;;;;;14.50;10.95;;;;;;;19.16;100.00;100941.09;6168389;28;20062;-88
2022/09/11 10:05:59;;;;;;;15.63;10.13;;;;;;;19.01;100.00;100937.53;6170066;28;20041;-88
2022/09/11 10:09:00;;;;;;;15.90;10.35;;;;;;;18.92;100.00;100932.25;6172035;28;20429;-89
2022/09/11 10:12:09;;;;;;;16.80;11.00;;;;;;;18.89;100.00;100939.66;6175255;28;20420;-89
2022/09/11 10:15:20;;;;;;;15.45;9.88;;;;;;;18.89;100.00;100937.84;6193512;28;20060;-88
2022/09/11 10:18:31;;;;;;;;;;;;;;;18.79;100.00;100947.69;6219283;28;20062;-88
2022/09/11 10:21:34;;;;;;;15.32;9.40;;;;;;;18.61;100.00;100929.47;6221118;28;19932;-88
2022/09/11 10:24:35;;;;;;;19.95;11.15;;;;;;;18.46;100.00;100942.41;6263724;28;20071;-88
2022/09/11 10:27:58;;;;;;;16.75;10.73;;;;;;;18.27;100.00;100937.47;6270514;28;20541;-88
2022/09/11 10:31:07;;;;;;;14.63;9.27;;;;;;;18.04;100.00;100942.50;6264449;28;20517;-88
2022/09/11 10:34:16;;;;;;;15.38;10.00;;;;;;;17.85;100.00;100940.97;6274151;28;20036;-88
2022/09/11 10:37:26;;;;;;;17.27;10.27;;;;;;;17.71;100.00;100941.53;6275457;28;20488;-88
2022/09/11 10:40:28;;;;;;;15.88;10.40;;;;;;;17.63;100.00;100944.94;6269992;28;20328;-88
2022/09/11 10:43:39;;;;;;;16.23;10.07;;;;;;;17.68;100.00;100953.13;6273309;28;20478;-89
2022/09/11 10:46:42;;;;;;;18.10;10.20;;;;;;;17.73;100.00;100955.28;6280937;28;20658;-88
2022/09/11 10:49:45;;;;;;;17.27;10.18;;;;;;;17.72;100.00;100943.19;6276375;28;20045;-88
2022/09/11 10:53:16;;;;;;;17.65;11.55;;;;;;;17.68;100.00;100953.13;6259891;28;20402;-88
2022/09/11 10:56:18;;;;;;;21.58;12.45;;;;;;;17.68;100.00;100955.75;6293483;28;20411;-88
2022/09/11 10:59:30;;;;;;;20.60;12.15;;;;;;;17.61;100.00;100946.88;6271820;28;20725;-88
2022/09/11 11:02:35;;;;;;;22.45;13.65;;;;;;;17.53;100.00;100950.28;6283988;28;20055;-88
2022/09/11 11:05:45;;;;;;;24.08;13.77;;;;;;;17.43;100.00;100949.56;6257748;28;20131;-88
2022/09/11 11:09:03;;;;;;;23.05;13.52;;;;;;;17.40;100.00;100950.72;6280480;28;20049;-88
2022/09/11 11:12:20;;;;;;;23.98;12.88;;;;;;;17.56;100.00;100959.63;6267194;28;20435;-88
2022/09/11 11:15:46;;;;;;;22.48;13.15;;;;;;;17.73;100.00;100955.28;6280346;28;20025;-87
2022/09/11 11:19:11;;;;;;;24.13;12.88;;;;;;;18.02;100.00;100957.56;6256751;28;20521;-88
2022/09/11 11:22:52;;;;;;;22.42;12.77;;;;;;;18.49;100.00;100963.06;6259156;28;20049;-88
2022/09/11 11:26:14;;;;;;;20.45;12.52;;;;;;;18.94;100.00;100959.16;6256825;28;20187;-88
2022/09/11 11:29:49;;;;;;;22.75;12.82;;;;;;;19.30;100.00;100968.44;6241118;28;20045;-88
2022/09/11 11:33:22;;;;;;;22.05;12.45;;;;;;;19.57;100.00;100962.78;6253815;28;20060;-88
2022/09/11 11:36:36;;;;;;;20.05;12.10;;;;;;;19.82;100.00;100964.53;6256099;28;20041;-88
2022/09/11 11:40:14;;;;;;;17.77;11.95;;;;;;;19.95;100.00;100968.28;6256292;28;20515;-88
2022/09/11 11:43:21;;;;;;;14.75;10.75;;;;;;;19.91;100.00;100969.59;6254666;28;20118;-88
2022/09/11 11:46:32;;;;;;;16.58;10.35;;;;;;;19.90;100.00;100970.59;6238134;28;20165;-88
2022/09/11 11:49:51;;;;;;;17.52;10.63;;;;;;;19.85;100.00;100980.81;6252057;28;20041;-88
2022/09/11 11:53:23;;;;;;;17.30;9.77;;;;;;;19.72;100.00;100975.25;6239728;28;20991;-88
2022/09/11 11:56:29;;;;;;;16.40;10.90;;;;;;;19.59;100.00;100975.75;6257135;28;20047;-88
2022/09/11 11:59:50;;;;;;;16.42;10.48;;;;;;;19.61;100.00;100970.34;6264536;28;20367;-88
2022/09/11 12:02:59;;;;;;;17.08;9.95;;;;;;;19.75;100.00;100975.75;6275930;28;20037;-88
2022/09/11 12:06:01;;;;;;;15.70;9.30;;;;;;;19.91;100.00;100972.22;6278425;28;20040;-89
2022/09/11 12:09:07;;;;;;;12.80;7.88;;;;;;;20.05;100.00;100969.84;6263734;28;20509;-88
2022/09/11 12:12:10;;;;;;;10.13;6.82;;;;;;;20.13;100.00;100978.53;6268819;28;20219;-88
2022/09/11 12:15:21;;;;;;;10.27;7.07;;;;;;;20.08;100.00;100974.78;6279421;28;20040;-88
2022/09/11 12:18:24;;;;;;;10.55;6.18;;;;;;;20.12;99.61;100973.44;6274718;28;20059;-88
2022/09/11 12:21:28;;;;;;;9.27;5.70;;;;;;;20.08;100.00;100972.97;6277535;28;20188;-88
2022/09/11 12:24:53;;;;;;;9.30;5.40;;;;;;;20.15;99.93;100973.09;6276206;28;20036;-88
2022/09/11 12:28:20;;;;;;;10.68;6.57;;;;;;;20.03;98.90;100962.16;6264726;28;20036;-88
2022/09/11 12:31:22;;;;;;;7.90;5.90;;;;;;;20.08;99.38;100969.53;6290272;28;20519;-88
2022/09/11 12:34:42;;;;;;;11.13;7.63;;;;;;;19.97;100.00;100966.28;6279957;28;20043;-88
2022/09/11 12:37:49;;;;;;;11.48;7.05;;;;;;;19.85;100.00;100970.28;6274163;28;20052;-88
2022/09/11 12:40:58;;;;;;;10.38;7.40;;;;;;;19.75;100.00;100962.63;6280878;28;20082;-88
2022/09/11 12:44:28;;;;;;;10.60;6.88;;;;;;;19.78;100.00;100962.28;6277397;28;20388;-88
2022/09/11 12:47:40;;;;;;;8.13;5.65;;;;;;;20.02;100.00;100965.75;6272702;28;20526;-89
2022/09/11 12:50:52;;;;;;;9.68;5.70;;;;;;;20.67;99.85;100959.31;6280115;28;21016;-90
2022/09/11 12:54:01;;;;;;;8.50;5.82;;;;;;;21.40;92.24;100962.25;6283062;28;20048;-88
2022/09/11 12:57:33;;;;;;;9.55;5.60;;;;;;;21.99;87.58;100956.94;6252292;28;20406;-89
2022/09/11 13:00:39;;;;;;;9.10;5.45;;;;;;;22.07;85.37;100961.28;6278009;28;20037;-89
2022/09/11 13:04:14;;;;;;;10.63;5.63;;;;;;;21.53;86.51;100954.53;6275640;28;20055;-89
2022/09/11 13:07:44;;;;;;;9.13;5.68;;;;;;;20.91;89.51;100955.63;6276287;28;20050;-89
2022/09/11 13:10:45;;;;;;;8.60;6.03;;;;;;;20.22;93.67;100955.63;6265801;28;20094;-89
2022/09/11 13:13:53;;;;;;;6.78;5.20;;;;;;;19.68;99.66;100952.97;6265807;28;20657;-88
2022/09/11 13:16:57;;;;;;;8.63;6.10;;;;;;;19.24;100.00;100948.13;6267312;28;20530;-89
2022/09/11 13:20:08;;;;;;;8.80;5.47;;;;;;;18.83;100.00;100950.78;6275288;28;20259;-89
2022/09/11 13:23:21;;;;;;;7.68;5.57;;;;;;;18.68;100.00;100943.59;6271141;28;20041;-89
2022/09/11 13:26:30;;;;;;;9.80;6.13;;;;;;;18.58;100.00;100944.69;6255455;28;20067;-89
2022/09/11 13:29:35;;;;;;;12.30;7.00;;;;;;;18.59;100.00;100947.16;6256686;28;20048;-88
2022/09/11 13:32:37;;;;;;;8.18;6.10;;;;;;;18.43;100.00;100942.75;6275125;28;20082;-88
2022/09/11 13:35:44;;;;;;;10.15;6.63;;;;;;;18.29;100.00;100946.81;6276165;28;20633;-88
2022/09/11 13:38:53;;;;;;;9.60;6.85;;;;;;;18.22;100.00;100943.19;6280792;28;20411;-89
2022/09/11 13:42:07;;;;;;;9.98;6.45;;;;;;;18.24;100.00;100941.22;6271799;28;20032;-88
2022/09/11 13:45:15;;;;;;;13.48;7.95;;;;;;;18.54;100.00;100946.84;6281418;28;20041;-88
2022/09/11 13:48:25;;;;;;;12.05;7.25;;;;;;;18.89;100.00;100943.09;6281357;28;20127;-88
2022/09/11 13:51:38;;;;;;;11.75;7.63;;;;;;;19.40;100.00;100945.44;6281251;28;20116;-89
2022/09/11 13:54:51;;;;;;;14.45;8.10;;;;;;;19.69;100.00;100938.84;6281226;28;20036;-88
2022/09/11 13:57:59;;;;;;;11.48;8.32;;;;;;;19.80;100.00;100943.72;6279246;28;20566;-89
2022/09/11 14:01:13;;;;;;;12.50;8.57;;;;;;;20.15;99.40;100933.69;6282511;28;20044;-89
2022/09/11 14:04:15;;;;;;;11.27;8.35;;;;;;;20.11;98.95;100927.94;6262776;28;20041;-89
2022/09/11 14:07:24;;;;;;;14.60;8.98;;;;;;;20.12;100.00;100924.34;6285809;28;20052;-88
2022/09/11 14:10:34;;;;;;;12.45;8.18;;;;;;;20.49;98.07;100924.56;6277069;28;20712;-89
2022/09/11 14:13:45;;;;;;;8.07;5.95;;;;;;;21.24;90.04;100929.81;6286846;28;20048;-89